sensor_id;sensor_type;location;lat;lon;timestamp;pressure;altitude;pressure_sealevel;temperature;humidity
73501;BME280;61721;42.206;25.320;2024-02-21T00:01:28;100272.66;;;7.94;67.15
73501;BME280;61721;42.206;25.320;2024-02-21T00:03:56;100269.75;;;7.58;68.64
73501;BME280;61721;42.206;25.320;2024-02-21T00:06:23;100268.25;;;7.10;70.33
73501;BME280;61721;42.206;25.320;2024-02-21T00:08:51;100268.91;;;7.12;71.24
73501;BME280;61721;42.206;25.320;2024-02-21T00:11:20;100279.81;;;6.95;71.43
73501;BME280;61721;42.206;25.320;2024-02-21T00:13:48;100271.03;;;6.93;71.40
73501;BME280;61721;42.206;25.320;2024-02-21T00:16:16;100270.41;;;6.83;72.09
73501;BME280;61721;42.206;25.320;2024-02-21T00:18:44;100265.94;;;6.67;72.83
73501;BME280;61721;42.206;25.320;2024-02-21T00:21:11;100269.88;;;6.57;73.64
73501;BME280;61721;42.206;25.320;2024-02-21T00:23:44;100279.06;;;6.40;73.72
73501;BME280;61721;42.206;25.320;2024-02-21T00:26:12;100262.34;;;6.36;74.68
73501;BME280;61721;42.206;25.320;2024-02-21T00:28:41;100262.56;;;6.18;74.90
73501;BME280;61721;42.206;25.320;2024-02-21T00:31:08;100267.69;;;6.13;75.17
73501;BME280;61721;42.206;25.320;2024-02-21T00:33:35;100268.97;;;6.25;75.01
73501;BME280;61721;42.206;25.320;2024-02-21T00:36:03;100270.75;;;5.94;75.66
73501;BME280;61721;42.206;25.320;2024-02-21T00:38:32;100278.16;;;6.00;76.08
73501;BME280;61721;42.206;25.320;2024-02-21T00:40:59;100269.16;;;6.16;76.01
73501;BME280;61721;42.206;25.320;2024-02-21T00:43:27;100273.09;;;5.97;76.07
73501;BME280;61721;42.206;25.320;2024-02-21T00:45:56;100274.59;;;6.08;75.75
73501;BME280;61721;42.206;25.320;2024-02-21T00:48:23;100277.16;;;6.01;76.41
73501;BME280;61721;42.206;25.320;2024-02-21T00:50:51;100276.75;;;6.28;75.92
73501;BME280;61721;42.206;25.320;2024-02-21T00:53:18;100280.66;;;6.18;75.99
73501;BME280;61721;42.206;25.320;2024-02-21T00:55:45;100282.38;;;6.58;75.61
73501;BME280;61721;42.206;25.320;2024-02-21T00:58:13;100281.09;;;6.38;74.88
73501;BME280;61721;42.206;25.320;2024-02-21T01:00:40;100269.81;;;6.34;75.54
73501;BME280;61721;42.206;25.320;2024-02-21T01:03:09;100268.75;;;6.35;75.23
73501;BME280;61721;42.206;25.320;2024-02-21T01:05:43;100271.59;;;6.50;75.23
73501;BME280;61721;42.206;25.320;2024-02-21T01:08:11;100270.06;;;7.17;73.44
73501;BME280;61721;42.206;25.320;2024-02-21T01:10:39;100270.34;;;6.99;72.31
73501;BME280;61721;42.206;25.320;2024-02-21T01:13:06;100274.44;;;7.41;72.04
73501;BME280;61721;42.206;25.320;2024-02-21T01:15:34;100281.06;;;7.61;71.05
73501;BME280;61721;42.206;25.320;2024-02-21T01:18:01;100268.81;;;7.28;71.11
73501;BME280;61721;42.206;25.320;2024-02-21T01:20:30;100274.28;;;7.20;71.14
73501;BME280;61721;42.206;25.320;2024-02-21T01:22:57;100274.75;;;7.00;71.51
73501;BME280;61721;42.206;25.320;2024-02-21T01:25:25;100267.63;;;6.99;72.34
73501;BME280;61721;42.206;25.320;2024-02-21T01:27:52;100263.88;;;6.39;73.94
73501;BME280;61721;42.206;25.320;2024-02-21T01:30:20;100271.72;;;6.95;72.18
73501;BME280;61721;42.206;25.320;2024-02-21T01:32:47;100277.06;;;7.03;72.12
73501;BME280;61721;42.206;25.320;2024-02-21T01:35:14;100274.59;;;7.48;70.57
73501;BME280;61721;42.206;25.320;2024-02-21T01:37:43;100266.25;;;7.03;71.37
73501;BME280;61721;42.206;25.320;2024-02-21T01:40:11;100267.50;;;6.62;72.52
73501;BME280;61721;42.206;25.320;2024-02-21T01:42:39;100274.66;;;6.47;72.94
73501;BME280;61721;42.206;25.320;2024-02-21T01:45:07;100269.78;;;6.73;72.84
73501;BME280;61721;42.206;25.320;2024-02-21T01:47:34;100283.09;;;7.14;70.97
73501;BME280;61721;42.206;25.320;2024-02-21T01:50:03;100283.34;;;6.65;71.93
73501;BME280;61721;42.206;25.320;2024-02-21T01:52:31;100282.44;;;6.42;73.22
73501;BME280;61721;42.206;25.320;2024-02-21T01:55:04;100278.44;;;6.68;72.02
73501;BME280;61721;42.206;25.320;2024-02-21T01:57:32;100271.03;;;6.93;70.74
73501;BME280;61721;42.206;25.320;2024-02-21T01:59:59;100263.78;;;6.63;70.94
73501;BME280;61721;42.206;25.320;2024-02-21T02:02:27;100259.13;;;6.41;71.90
73501;BME280;61721;42.206;25.320;2024-02-21T02:05:03;100260.59;;;6.90;71.78
73501;BME280;61721;42.206;25.320;2024-02-21T02:07:31;100258.44;;;7.08;70.46
73501;BME280;61721;42.206;25.320;2024-02-21T02:09:59;100265.22;;;7.04;70.67
73501;BME280;61721;42.206;25.320;2024-02-21T02:12:28;100260.66;;;6.35;72.30
73501;BME280;61721;42.206;25.320;2024-02-21T02:15:00;100264.91;;;6.29;72.99
73501;BME280;61721;42.206;25.320;2024-02-21T02:17:30;100258.16;;;6.33;72.70
73501;BME280;61721;42.206;25.320;2024-02-21T02:19:57;100252.94;;;6.24;72.95
73501;BME280;61721;42.206;25.320;2024-02-21T02:22:28;100258.50;;;6.30;72.99
73501;BME280;61721;42.206;25.320;2024-02-21T02:24:58;100255.50;;;6.09;73.43
73501;BME280;61721;42.206;25.320;2024-02-21T02:27:26;100250.41;;;6.22;73.19
73501;BME280;61721;42.206;25.320;2024-02-21T02:29:53;100251.44;;;6.21;72.89
73501;BME280;61721;42.206;25.320;2024-02-21T02:32:21;100248.66;;;6.38;73.06
73501;BME280;61721;42.206;25.320;2024-02-21T02:34:48;100252.38;;;6.37;73.03
73501;BME280;61721;42.206;25.320;2024-02-21T02:37:16;100246.06;;;6.13;73.42
73501;BME280;61721;42.206;25.320;2024-02-21T02:39:43;100237.13;;;6.13;74.06
73501;BME280;61721;42.206;25.320;2024-02-21T02:42:12;100240.59;;;6.29;73.24
73501;BME280;61721;42.206;25.320;2024-02-21T02:44:39;100239.91;;;6.27;73.74
73501;BME280;61721;42.206;25.320;2024-02-21T02:47:08;100236.97;;;6.53;73.03
73501;BME280;61721;42.206;25.320;2024-02-21T02:49:35;100243.34;;;6.60;72.80
73501;BME280;61721;42.206;25.320;2024-02-21T02:52:03;100245.16;;;6.68;72.48
73501;BME280;61721;42.206;25.320;2024-02-21T02:54:31;100245.53;;;6.57;73.02
73501;BME280;61721;42.206;25.320;2024-02-21T02:57:01;100250.84;;;6.81;72.31
73501;BME280;61721;42.206;25.320;2024-02-21T02:59:31;100243.19;;;7.16;70.88
73501;BME280;61721;42.206;25.320;2024-02-21T03:01:58;100249.66;;;7.06;71.10
73501;BME280;61721;42.206;25.320;2024-02-21T03:04:26;100241.78;;;6.66;71.61
73501;BME280;61721;42.206;25.320;2024-02-21T03:06:53;100238.19;;;6.34;72.59
73501;BME280;61721;42.206;25.320;2024-02-21T03:09:20;100246.63;;;6.40;72.80
73501;BME280;61721;42.206;25.320;2024-02-21T03:11:48;100234.88;;;6.16;73.88
73501;BME280;61721;42.206;25.320;2024-02-21T03:14:15;100241.94;;;6.25;73.72
73501;BME280;61721;42.206;25.320;2024-02-21T03:16:44;100243.00;;;6.24;73.57
73501;BME280;61721;42.206;25.320;2024-02-21T03:19:11;100240.91;;;6.43;72.66
73501;BME280;61721;42.206;25.320;2024-02-21T03:21:39;100237.78;;;6.15;73.54
73501;BME280;61721;42.206;25.320;2024-02-21T03:24:07;100240.84;;;6.04;73.82
73501;BME280;61721;42.206;25.320;2024-02-21T03:26:34;100249.00;;;6.34;73.75
73501;BME280;61721;42.206;25.320;2024-02-21T03:29:01;100248.31;;;6.41;72.09
73501;BME280;61721;42.206;25.320;2024-02-21T03:31:29;100255.13;;;6.28;72.71
73501;BME280;61721;42.206;25.320;2024-02-21T03:33:58;100247.03;;;6.20;72.73
73501;BME280;61721;42.206;25.320;2024-02-21T03:36:25;100251.06;;;6.32;72.70
73501;BME280;61721;42.206;25.320;2024-02-21T03:38:53;100252.13;;;6.23;72.58
73501;BME280;61721;42.206;25.320;2024-02-21T03:41:21;100240.19;;;6.49;71.94
73501;BME280;61721;42.206;25.320;2024-02-21T03:43:48;100238.97;;;6.12;72.34
73501;BME280;61721;42.206;25.320;2024-02-21T03:46:18;100246.50;;;6.25;72.05
73501;BME280;61721;42.206;25.320;2024-02-21T03:48:48;100239.00;;;5.96;73.01
73501;BME280;61721;42.206;25.320;2024-02-21T03:51:18;100241.03;;;5.94;73.36
73501;BME280;61721;42.206;25.320;2024-02-21T03:53:45;100236.84;;;6.39;72.42
73501;BME280;61721;42.206;25.320;2024-02-21T03:56:12;100237.28;;;6.11;72.53
73501;BME280;61721;42.206;25.320;2024-02-21T03:58:40;100242.47;;;6.21;72.32
73501;BME280;61721;42.206;25.320;2024-02-21T04:01:07;100244.13;;;6.69;70.99
73501;BME280;61721;42.206;25.320;2024-02-21T04:03:35;100248.44;;;6.86;70.65
73501;BME280;61721;42.206;25.320;2024-02-21T04:06:03;100248.31;;;6.80;70.78
73501;BME280;61721;42.206;25.320;2024-02-21T04:08:32;100241.53;;;6.53;71.11
73501;BME280;61721;42.206;25.320;2024-02-21T04:10:59;100245.28;;;6.75;71.21
73501;BME280;61721;42.206;25.320;2024-02-21T04:13:27;100247.00;;;6.67;71.19
73501;BME280;61721;42.206;25.320;2024-02-21T04:15:54;100245.94;;;6.46;71.99
73501;BME280;61721;42.206;25.320;2024-02-21T04:18:22;100247.56;;;6.55;71.94
73501;BME280;61721;42.206;25.320;2024-02-21T04:20:51;100253.03;;;6.47;72.14
73501;BME280;61721;42.206;25.320;2024-02-21T04:23:19;100250.63;;;6.83;71.07
73501;BME280;61721;42.206;25.320;2024-02-21T04:25:47;100248.31;;;7.02;70.47
73501;BME280;61721;42.206;25.320;2024-02-21T04:28:15;100258.53;;;6.92;69.92
73501;BME280;61721;42.206;25.320;2024-02-21T04:30:42;100258.69;;;6.68;70.21
73501;BME280;61721;42.206;25.320;2024-02-21T04:33:10;100266.78;;;6.68;70.15
73501;BME280;61721;42.206;25.320;2024-02-21T04:35:37;100262.47;;;6.51;70.69
73501;BME280;61721;42.206;25.320;2024-02-21T04:38:06;100262.88;;;6.31;71.39
73501;BME280;61721;42.206;25.320;2024-02-21T04:40:33;100254.28;;;6.28;71.78
73501;BME280;61721;42.206;25.320;2024-02-21T04:43:03;100259.19;;;6.24;71.91
73501;BME280;61721;42.206;25.320;2024-02-21T04:45:30;100262.56;;;6.26;71.84
73501;BME280;61721;42.206;25.320;2024-02-21T04:47:57;100261.56;;;6.19;71.76
73501;BME280;61721;42.206;25.320;2024-02-21T04:50:25;100253.81;;;6.24;72.11
73501;BME280;61721;42.206;25.320;2024-02-21T04:52:53;100261.38;;;6.68;71.01
73501;BME280;61721;42.206;25.320;2024-02-21T04:55:20;100254.78;;;6.70;70.47
73501;BME280;61721;42.206;25.320;2024-02-21T04:57:47;100253.78;;;6.16;71.34
73501;BME280;61721;42.206;25.320;2024-02-21T05:00:17;100258.56;;;5.82;72.97
73501;BME280;61721;42.206;25.320;2024-02-21T05:02:44;100258.16;;;6.33;72.14
73501;BME280;61721;42.206;25.320;2024-02-21T05:05:12;100267.38;;;6.47;71.45
73501;BME280;61721;42.206;25.320;2024-02-21T05:07:40;100268.25;;;6.40;71.19
73501;BME280;61721;42.206;25.320;2024-02-21T05:10:08;100261.56;;;6.19;71.68
73501;BME280;61721;42.206;25.320;2024-02-21T05:12:36;100272.38;;;6.19;71.80
73501;BME280;61721;42.206;25.320;2024-02-21T05:15:04;100273.06;;;6.13;71.99
73501;BME280;61721;42.206;25.320;2024-02-21T05:17:33;100277.03;;;6.42;71.31
73501;BME280;61721;42.206;25.320;2024-02-21T05:20:01;100278.44;;;6.68;70.46
73501;BME280;61721;42.206;25.320;2024-02-21T05:22:28;100275.69;;;6.38;71.10
73501;BME280;61721;42.206;25.320;2024-02-21T05:24:56;100288.16;;;6.47;70.68
73501;BME280;61721;42.206;25.320;2024-02-21T05:27:23;100287.28;;;5.99;71.85
73501;BME280;61721;42.206;25.320;2024-02-21T05:29:50;100289.31;;;6.05;71.87
73501;BME280;61721;42.206;25.320;2024-02-21T05:32:18;100284.53;;;6.23;71.88
73501;BME280;61721;42.206;25.320;2024-02-21T05:34:48;100292.00;;;6.05;71.80
73501;BME280;61721;42.206;25.320;2024-02-21T05:37:16;100293.31;;;5.77;72.16
73501;BME280;61721;42.206;25.320;2024-02-21T05:39:44;100296.31;;;6.30;70.80
73501;BME280;61721;42.206;25.320;2024-02-21T05:42:11;100294.41;;;6.47;70.66
73501;BME280;61721;42.206;25.320;2024-02-21T05:44:39;100299.31;;;6.52;70.26
73501;BME280;61721;42.206;25.320;2024-02-21T05:47:07;100303.47;;;6.70;69.73
73501;BME280;61721;42.206;25.320;2024-02-21T05:49:36;100302.19;;;6.50;70.90
73501;BME280;61721;42.206;25.320;2024-02-21T05:52:06;100306.41;;;6.53;70.85
73501;BME280;61721;42.206;25.320;2024-02-21T05:54:33;100308.06;;;6.54;70.55
73501;BME280;61721;42.206;25.320;2024-02-21T05:57:00;100306.94;;;6.40;70.82
73501;BME280;61721;42.206;25.320;2024-02-21T05:59:28;100308.13;;;6.38;71.54
73501;BME280;61721;42.206;25.320;2024-02-21T06:01:56;100310.19;;;6.75;70.38
73501;BME280;61721;42.206;25.320;2024-02-21T06:04:24;100314.38;;;6.38;70.96
73501;BME280;61721;42.206;25.320;2024-02-21T06:06:51;100316.66;;;5.94;72.81
73501;BME280;61721;42.206;25.320;2024-02-21T06:09:20;100323.69;;;6.27;72.11
73501;BME280;61721;42.206;25.320;2024-02-21T06:11:48;100320.34;;;6.09;72.57
73501;BME280;61721;42.206;25.320;2024-02-21T06:14:15;100316.47;;;6.12;72.27
73501;BME280;61721;42.206;25.320;2024-02-21T06:16:43;100316.78;;;6.17;72.41
73501;BME280;61721;42.206;25.320;2024-02-21T06:19:11;100324.53;;;6.28;72.47
73501;BME280;61721;42.206;25.320;2024-02-21T06:21:39;100325.03;;;6.31;71.76
73501;BME280;61721;42.206;25.320;2024-02-21T06:24:06;100330.72;;;6.45;72.10
73501;BME280;61721;42.206;25.320;2024-02-21T06:26:35;100332.97;;;6.41;71.75
73501;BME280;61721;42.206;25.320;2024-02-21T06:29:02;100332.50;;;6.13;73.15
73501;BME280;61721;42.206;25.320;2024-02-21T06:31:30;100335.84;;;6.15;73.48
73501;BME280;61721;42.206;25.320;2024-02-21T06:33:58;100338.91;;;5.96;74.24
73501;BME280;61721;42.206;25.320;2024-02-21T06:36:25;100338.56;;;6.23;73.61
73501;BME280;61721;42.206;25.320;2024-02-21T06:38:53;100343.97;;;6.07;74.04
73501;BME280;61721;42.206;25.320;2024-02-21T06:41:21;100346.34;;;5.86;74.99
73501;BME280;61721;42.206;25.320;2024-02-21T06:43:51;100346.03;;;6.05;74.44
73501;BME280;61721;42.206;25.320;2024-02-21T06:46:24;100344.13;;;5.81;75.22
73501;BME280;61721;42.206;25.320;2024-02-21T06:48:52;100347.00;;;5.72;76.18
73501;BME280;61721;42.206;25.320;2024-02-21T06:51:20;100348.34;;;5.68;76.11
73501;BME280;61721;42.206;25.320;2024-02-21T06:53:47;100347.31;;;5.77;75.99
73501;BME280;61721;42.206;25.320;2024-02-21T06:56:15;100349.72;;;5.88;76.16
73501;BME280;61721;42.206;25.320;2024-02-21T06:58:43;100341.63;;;5.96;75.57
73501;BME280;61721;42.206;25.320;2024-02-21T07:01:12;100345.00;;;6.06;75.62
73501;BME280;61721;42.206;25.320;2024-02-21T07:03:39;100340.72;;;6.83;74.13
73501;BME280;61721;42.206;25.320;2024-02-21T07:06:07;100337.19;;;6.36;74.57
73501;BME280;61721;42.206;25.320;2024-02-21T07:08:34;100335.31;;;6.83;73.26
73501;BME280;61721;42.206;25.320;2024-02-21T07:11:02;100337.38;;;6.81;72.26
73501;BME280;61721;42.206;25.320;2024-02-21T07:13:29;100337.19;;;6.91;71.96
73501;BME280;61721;42.206;25.320;2024-02-21T07:15:57;100340.28;;;7.11;71.68
73501;BME280;61721;42.206;25.320;2024-02-21T07:18:26;100342.06;;;7.26;71.20
73501;BME280;61721;42.206;25.320;2024-02-21T07:20:53;100345.31;;;7.44;71.03
73501;BME280;61721;42.206;25.320;2024-02-21T07:23:21;100347.56;;;8.24;68.43
73501;BME280;61721;42.206;25.320;2024-02-21T07:25:48;100347.69;;;8.08;68.71
73501;BME280;61721;42.206;25.320;2024-02-21T07:28:16;100350.34;;;8.16;68.10
73501;BME280;61721;42.206;25.320;2024-02-21T07:30:43;100356.38;;;8.03;68.96
73501;BME280;61721;42.206;25.320;2024-02-21T07:33:11;100362.00;;;8.98;67.17
73501;BME280;61721;42.206;25.320;2024-02-21T07:35:39;100359.50;;;8.52;67.23
73501;BME280;61721;42.206;25.320;2024-02-21T07:38:10;100347.44;;;8.70;66.83
73501;BME280;61721;42.206;25.320;2024-02-21T07:40:38;100359.88;;;9.65;64.33
73501;BME280;61721;42.206;25.320;2024-02-21T07:43:05;100363.47;;;9.87;64.04
73501;BME280;61721;42.206;25.320;2024-02-21T07:45:35;100360.75;;;10.09;63.11
73501;BME280;61721;42.206;25.320;2024-02-21T07:48:03;100360.22;;;9.98;61.88
73501;BME280;61721;42.206;25.320;2024-02-21T07:50:31;100357.41;;;10.62;61.35
73501;BME280;61721;42.206;25.320;2024-02-21T07:53:00;100359.97;;;10.70;61.10
73501;BME280;61721;42.206;25.320;2024-02-21T07:55:28;100344.94;;;10.74;60.54
73501;BME280;61721;42.206;25.320;2024-02-21T07:57:55;100350.09;;;10.14;61.24
73501;BME280;61721;42.206;25.320;2024-02-21T08:00:22;100347.47;;;10.20;61.58
73501;BME280;61721;42.206;25.320;2024-02-21T08:02:50;100347.81;;;10.66;61.15
73501;BME280;61721;42.206;25.320;2024-02-21T08:05:17;100343.28;;;10.80;60.68
73501;BME280;61721;42.206;25.320;2024-02-21T08:07:45;100350.84;;;10.85;60.12
73501;BME280;61721;42.206;25.320;2024-02-21T08:10:13;100358.59;;;10.53;61.64
73501;BME280;61721;42.206;25.320;2024-02-21T08:12:41;100352.72;;;10.84;60.25
73501;BME280;61721;42.206;25.320;2024-02-21T08:15:08;100353.47;;;10.71;61.61
73501;BME280;61721;42.206;25.320;2024-02-21T08:17:36;100354.72;;;11.10;61.10
73501;BME280;61721;42.206;25.320;2024-02-21T08:20:04;100348.06;;;11.19;60.18
73501;BME280;61721;42.206;25.320;2024-02-21T08:22:32;100358.03;;;10.99;60.06
73501;BME280;61721;42.206;25.320;2024-02-21T08:24:59;100348.78;;;11.47;58.79
73501;BME280;61721;42.206;25.320;2024-02-21T08:27:28;100354.69;;;11.58;58.20
73501;BME280;61721;42.206;25.320;2024-02-21T08:29:55;100356.63;;;11.70;58.24
73501;BME280;61721;42.206;25.320;2024-02-21T08:32:23;100347.91;;;12.27;56.71
73501;BME280;61721;42.206;25.320;2024-02-21T08:34:50;100349.13;;;12.32;57.15
73501;BME280;61721;42.206;25.320;2024-02-21T08:37:17;100356.00;;;12.80;56.19
73501;BME280;61721;42.206;25.320;2024-02-21T08:39:45;100350.50;;;12.93;54.86
73501;BME280;61721;42.206;25.320;2024-02-21T08:42:12;100357.34;;;13.29;53.88
73501;BME280;61721;42.206;25.320;2024-02-21T08:44:41;100349.47;;;12.94;53.36
73501;BME280;61721;42.206;25.320;2024-02-21T08:47:10;100353.13;;;13.33;53.36
73501;BME280;61721;42.206;25.320;2024-02-21T08:49:38;100358.59;;;13.33;51.98
73501;BME280;61721;42.206;25.320;2024-02-21T08:52:05;100367.13;;;13.88;52.11
73501;BME280;61721;42.206;25.320;2024-02-21T08:54:33;100368.16;;;14.18;49.73
73501;BME280;61721;42.206;25.320;2024-02-21T08:57:00;100362.50;;;12.79;53.64
73501;BME280;61721;42.206;25.320;2024-02-21T08:59:29;100364.72;;;13.73;51.58
73501;BME280;61721;42.206;25.320;2024-02-21T09:01:57;100360.19;;;14.66;49.71
73501;BME280;61721;42.206;25.320;2024-02-21T09:04:25;100363.56;;;14.68;50.07
73501;BME280;61721;42.206;25.320;2024-02-21T09:06:52;100368.19;;;15.41;47.63
73501;BME280;61721;42.206;25.320;2024-02-21T09:09:19;100372.41;;;14.70;48.12
73501;BME280;61721;42.206;25.320;2024-02-21T09:11:47;100367.03;;;15.48;46.76
73501;BME280;61721;42.206;25.320;2024-02-21T09:14:14;100364.56;;;14.92;47.66
73501;BME280;61721;42.206;25.320;2024-02-21T09:16:41;100368.69;;;15.38;46.03
73501;BME280;61721;42.206;25.320;2024-02-21T09:19:11;100378.63;;;14.53;48.88
73501;BME280;61721;42.206;25.320;2024-02-21T09:21:38;100366.97;;;14.64;48.02
73501;BME280;61721;42.206;25.320;2024-02-21T09:24:06;100372.94;;;14.97;46.50
73501;BME280;61721;42.206;25.320;2024-02-21T09:26:33;100361.00;;;15.28;46.62
73501;BME280;61721;42.206;25.320;2024-02-21T09:29:01;100361.34;;;15.50;47.04
73501;BME280;61721;42.206;25.320;2024-02-21T09:31:29;100358.22;;;15.94;45.35
73501;BME280;61721;42.206;25.320;2024-02-21T09:33:57;100358.56;;;15.98;44.70
73501;BME280;61721;42.206;25.320;2024-02-21T09:36:26;100358.00;;;15.66;45.60
73501;BME280;61721;42.206;25.320;2024-02-21T09:38:53;100355.59;;;16.00;44.23
73501;BME280;61721;42.206;25.320;2024-02-21T09:41:25;100350.38;;;16.10;44.74
73501;BME280;61721;42.206;25.320;2024-02-21T09:43:53;100357.72;;;15.98;43.81
73501;BME280;61721;42.206;25.320;2024-02-21T09:46:33;100346.41;;;15.64;44.20
73501;BME280;61721;42.206;25.320;2024-02-21T09:49:29;100344.25;;;15.48;44.58
73501;BME280;61721;42.206;25.320;2024-02-21T09:52:00;100346.34;;;16.24;43.93
73501;BME280;61721;42.206;25.320;2024-02-21T09:54:30;100343.84;;;18.63;40.92
73501;BME280;61721;42.206;25.320;2024-02-21T09:56:57;100351.09;;;19.07;38.35
73501;BME280;61721;42.206;25.320;2024-02-21T09:59:27;100349.72;;;19.70;37.56
73501;BME280;61721;42.206;25.320;2024-02-21T10:01:54;100342.44;;;18.60;38.42
73501;BME280;61721;42.206;25.320;2024-02-21T10:04:21;100339.41;;;19.60;36.51
73501;BME280;61721;42.206;25.320;2024-02-21T10:06:50;100341.50;;;18.54;37.72
73501;BME280;61721;42.206;25.320;2024-02-21T10:09:22;100340.47;;;18.10;37.90
73501;BME280;61721;42.206;25.320;2024-02-21T10:11:50;100319.72;;;19.13;35.90
73501;BME280;61721;42.206;25.320;2024-02-21T10:14:18;100326.47;;;19.93;35.23
73501;BME280;61721;42.206;25.320;2024-02-21T10:16:46;100335.47;;;18.74;35.08
73501;BME280;61721;42.206;25.320;2024-02-21T10:19:18;100318.56;;;18.87;35.13
73501;BME280;61721;42.206;25.320;2024-02-21T10:21:59;100320.81;;;18.90;36.41
73501;BME280;61721;42.206;25.320;2024-02-21T10:24:28;100314.84;;;18.43;37.00
73501;BME280;61721;42.206;25.320;2024-02-21T10:27:02;100301.94;;;19.70;32.47
73501;BME280;61721;42.206;25.320;2024-02-21T10:29:30;100298.25;;;20.97;32.63
73501;BME280;61721;42.206;25.320;2024-02-21T10:32:05;100294.56;;;19.80;33.34
73501;BME280;61721;42.206;25.320;2024-02-21T10:34:33;100299.63;;;21.52;32.12
73501;BME280;61721;42.206;25.320;2024-02-21T10:37:01;100294.72;;;22.50;29.99
73501;BME280;61721;42.206;25.320;2024-02-21T10:39:31;100281.66;;;22.66;30.27
73501;BME280;61721;42.206;25.320;2024-02-21T10:42:00;100275.31;;;23.40;29.09
73501;BME280;61721;42.206;25.320;2024-02-21T10:44:30;100277.84;;;22.26;27.88
73501;BME280;61721;42.206;25.320;2024-02-21T10:46:58;100275.06;;;22.11;29.16
73501;BME280;61721;42.206;25.320;2024-02-21T10:49:26;100264.31;;;23.19;27.91
73501;BME280;61721;42.206;25.320;2024-02-21T10:52:05;100255.03;;;22.75;26.45
73501;BME280;61721;42.206;25.320;2024-02-21T10:54:48;100260.63;;;22.44;27.27
73501;BME280;61721;42.206;25.320;2024-02-21T10:57:21;100253.34;;;21.47;27.45
73501;BME280;61721;42.206;25.320;2024-02-21T10:59:50;100254.94;;;23.00;27.75
73501;BME280;61721;42.206;25.320;2024-02-21T11:02:18;100237.03;;;23.81;26.02
73501;BME280;61721;42.206;25.320;2024-02-21T11:04:46;100242.50;;;24.25;25.80
73501;BME280;61721;42.206;25.320;2024-02-21T11:07:14;100236.34;;;23.60;26.72
73501;BME280;61721;42.206;25.320;2024-02-21T11:09:52;100233.00;;;23.58;26.46
73501;BME280;61721;42.206;25.320;2024-02-21T11:12:21;100230.19;;;21.99;27.32
73501;BME280;61721;42.206;25.320;2024-02-21T11:14:49;100230.63;;;22.62;26.14
73501;BME280;61721;42.206;25.320;2024-02-21T11:17:16;100226.63;;;25.26;24.36
73501;BME280;61721;42.206;25.320;2024-02-21T11:19:44;100219.78;;;25.37;24.32
73501;BME280;61721;42.206;25.320;2024-02-21T11:22:15;100222.56;;;25.18;23.63
73501;BME280;61721;42.206;25.320;2024-02-21T11:24:43;100220.13;;;25.11;23.28
73501;BME280;61721;42.206;25.320;2024-02-21T11:27:13;100218.91;;;23.49;25.98
73501;BME280;61721;42.206;25.320;2024-02-21T11:29:43;100217.22;;;24.50;23.58
73501;BME280;61721;42.206;25.320;2024-02-21T11:32:11;100205.69;;;22.56;23.70
73501;BME280;61721;42.206;25.320;2024-02-21T11:34:39;100207.09;;;22.44;24.09
73501;BME280;61721;42.206;25.320;2024-02-21T11:37:13;100205.22;;;24.26;22.54
73501;BME280;61721;42.206;25.320;2024-02-21T11:39:42;100192.31;;;22.69;25.88
73501;BME280;61721;42.206;25.320;2024-02-21T11:42:09;100210.28;;;26.27;20.72
73501;BME280;61721;42.206;25.320;2024-02-21T11:44:39;100198.50;;;25.97;21.62
73501;BME280;61721;42.206;25.320;2024-02-21T11:47:14;100190.91;;;26.90;20.35
73501;BME280;61721;42.206;25.320;2024-02-21T11:49:45;100195.41;;;24.81;22.96
73501;BME280;61721;42.206;25.320;2024-02-21T11:52:16;100191.38;;;21.99;24.33
73501;BME280;61721;42.206;25.320;2024-02-21T11:54:46;100189.94;;;23.11;25.25
73501;BME280;61721;42.206;25.320;2024-02-21T11:57:13;100185.50;;;23.15;23.19
73501;BME280;61721;42.206;25.320;2024-02-21T11:59:44;100190.25;;;22.10;23.44
73501;BME280;61721;42.206;25.320;2024-02-21T12:02:12;100182.50;;;21.81;24.49
73501;BME280;61721;42.206;25.320;2024-02-21T12:04:39;100176.28;;;21.08;26.68
73501;BME280;61721;42.206;25.320;2024-02-21T12:07:07;100180.75;;;23.60;24.11
73501;BME280;61721;42.206;25.320;2024-02-21T12:09:35;100179.91;;;24.75;23.64
73501;BME280;61721;42.206;25.320;2024-02-21T12:12:03;100178.19;;;25.59;21.73
73501;BME280;61721;42.206;25.320;2024-02-21T12:14:32;100172.47;;;25.13;20.83
73501;BME280;61721;42.206;25.320;2024-02-21T12:17:02;100177.03;;;26.85;20.68
73501;BME280;61721;42.206;25.320;2024-02-21T12:19:32;100167.31;;;25.25;20.05
73501;BME280;61721;42.206;25.320;2024-02-21T12:22:00;100165.06;;;24.08;21.17
73501;BME280;61721;42.206;25.320;2024-02-21T12:24:31;100167.34;;;25.20;21.71
73501;BME280;61721;42.206;25.320;2024-02-21T12:26:59;100165.06;;;23.74;22.27
73501;BME280;61721;42.206;25.320;2024-02-21T12:29:29;100153.97;;;21.61;24.55
73501;BME280;61721;42.206;25.320;2024-02-21T12:31:57;100154.75;;;22.22;23.53
73501;BME280;61721;42.206;25.320;2024-02-21T12:34:26;100153.69;;;22.08;25.40
73501;BME280;61721;42.206;25.320;2024-02-21T12:36:53;100156.00;;;25.35;21.80
73501;BME280;61721;42.206;25.320;2024-02-21T12:39:20;100150.94;;;21.62;23.92
73501;BME280;61721;42.206;25.320;2024-02-21T12:41:48;100156.16;;;21.79;24.44
73501;BME280;61721;42.206;25.320;2024-02-21T12:44:15;100144.97;;;23.14;23.95
73501;BME280;61721;42.206;25.320;2024-02-21T12:46:51;100149.78;;;21.48;23.89
73501;BME280;61721;42.206;25.320;2024-02-21T12:49:19;100140.09;;;21.45;24.44
73501;BME280;61721;42.206;25.320;2024-02-21T12:51:48;100134.38;;;23.89;22.42